Weather at Raleigh Durham International Airport

Public forecast

Using degrees Fahrenheit for public forecast. Weather courtesy of forecast.io.

Current aviation weather report (METAR) for Raleigh Durham International Airport

Report is more than 6 hours old.

2022/11/14 14:51 (retrieved 2 years ago)

KRDU 141451Z 06007KT 10SM BKN250 07/M03 A3041 RMK AO2 SLP300 T00721033 51022

Aviation forecast (TAF) for Raleigh Durham International Airport

Forecast is more than 12 hours old.

2023/02/22 20:09 Ammendment (retrieved 1 year ago)

TAF AMD KRDU 222006Z 2220/2318 22012G20KT P6SM SCT040 BKN250 FM230100 22010G18KT P6SM SCT250 WS020/23040KT FM231500 24012G22KT P6SM BKN025